sensor_id;sensor_type;location;lat;lon;timestamp;P1;durP1;ratioP1;P2;durP2;ratioP2
10769;SDS011;5437;50.852;4.438;2023-06-14T00:01:35;4.00;;;3.60;;
10769;SDS011;5437;50.852;4.438;2023-06-14T00:04:04;3.80;;;3.47;;
10769;SDS011;5437;50.852;4.438;2023-06-14T00:07:02;3.58;;;3.28;;
10769;SDS011;5437;50.852;4.438;2023-06-14T00:09:28;5.22;;;4.03;;
10769;SDS011;5437;50.852;4.438;2023-06-14T00:11:57;4.07;;;3.58;;
10769;SDS011;5437;50.852;4.438;2023-06-14T00:14:23;3.75;;;3.40;;
10769;SDS011;5437;50.852;4.438;2023-06-14T00:16:50;3.75;;;3.40;;
10769;SDS011;5437;50.852;4.438;2023-06-14T00:19:23;4.20;;;3.75;;
10769;SDS011;5437;50.852;4.438;2023-06-14T00:21:52;3.78;;;3.33;;
10769;SDS011;5437;50.852;4.438;2023-06-14T00:24:19;3.75;;;3.25;;
10769;SDS011;5437;50.852;4.438;2023-06-14T00:26:57;3.97;;;3.58;;
10769;SDS011;5437;50.852;4.438;2023-06-14T00:32:32;5.10;;;4.03;;
10769;SDS011;5437;50.852;4.438;2023-06-14T00:35:18;4.53;;;3.90;;
10769;SDS011;5437;50.852;4.438;2023-06-14T00:37:44;4.65;;;3.83;;
10769;SDS011;5437;50.852;4.438;2023-06-14T00:40:22;3.95;;;3.65;;
10769;SDS011;5437;50.852;4.438;2023-06-14T00:42:54;4.30;;;3.75;;
10769;SDS011;5437;50.852;4.438;2023-06-14T00:45:30;4.35;;;3.95;;
10769;SDS011;5437;50.852;4.438;2023-06-14T00:48:18;4.53;;;3.97;;
10769;SDS011;5437;50.852;4.438;2023-06-14T00:50:51;4.70;;;3.42;;
10769;SDS011;5437;50.852;4.438;2023-06-14T00:53:26;3.65;;;3.35;;
10769;SDS011;5437;50.852;4.438;2023-06-14T00:55:52;4.32;;;3.80;;
10769;SDS011;5437;50.852;4.438;2023-06-14T00:58:23;4.35;;;3.72;;
10769;SDS011;5437;50.852;4.438;2023-06-14T01:00:53;4.10;;;3.70;;
10769;SDS011;5437;50.852;4.438;2023-06-14T01:06:38;3.83;;;3.53;;
10769;SDS011;5437;50.852;4.438;2023-06-14T01:11:47;3.90;;;3.60;;
10769;SDS011;5437;50.852;4.438;2023-06-14T01:14:16;4.82;;;3.63;;
10769;SDS011;5437;50.852;4.438;2023-06-14T01:16:43;5.38;;;4.18;;
10769;SDS011;5437;50.852;4.438;2023-06-14T01:19:12;4.45;;;3.90;;
10769;SDS011;5437;50.852;4.438;2023-06-14T01:21:39;3.92;;;3.60;;
10769;SDS011;5437;50.852;4.438;2023-06-14T01:24:06;4.40;;;3.72;;
10769;SDS011;5437;50.852;4.438;2023-06-14T01:26:34;5.22;;;3.97;;
10769;SDS011;5437;50.852;4.438;2023-06-14T01:29:07;4.40;;;3.97;;
10769;SDS011;5437;50.852;4.438;2023-06-14T01:31:39;4.30;;;3.88;;
10769;SDS011;5437;50.852;4.438;2023-06-14T01:34:11;4.00;;;3.67;;
10769;SDS011;5437;50.852;4.438;2023-06-14T01:36:50;3.75;;;3.45;;
10769;SDS011;5437;50.852;4.438;2023-06-14T01:39:20;3.80;;;3.45;;
10769;SDS011;5437;50.852;4.438;2023-06-14T01:41:52;3.85;;;3.55;;
10769;SDS011;5437;50.852;4.438;2023-06-14T01:44:32;5.57;;;4.20;;
10769;SDS011;5437;50.852;4.438;2023-06-14T01:46:59;4.38;;;3.97;;
10769;SDS011;5437;50.852;4.438;2023-06-14T01:49:25;4.60;;;4.20;;
10769;SDS011;5437;50.852;4.438;2023-06-14T01:51:52;4.30;;;3.90;;
10769;SDS011;5437;50.852;4.438;2023-06-14T01:54:18;5.68;;;4.55;;
10769;SDS011;5437;50.852;4.438;2023-06-14T01:56:44;4.32;;;3.92;;
10769;SDS011;5437;50.852;4.438;2023-06-14T01:59:10;4.55;;;4.05;;
10769;SDS011;5437;50.852;4.438;2023-06-14T02:01:36;4.70;;;4.10;;
10769;SDS011;5437;50.852;4.438;2023-06-14T02:04:03;4.15;;;3.85;;
10769;SDS011;5437;50.852;4.438;2023-06-14T02:06:32;4.25;;;3.85;;
10769;SDS011;5437;50.852;4.438;2023-06-14T02:09:00;4.88;;;3.92;;
10769;SDS011;5437;50.852;4.438;2023-06-14T02:11:27;4.72;;;3.90;;
10769;SDS011;5437;50.852;4.438;2023-06-14T02:13:53;5.07;;;4.10;;
10769;SDS011;5437;50.852;4.438;2023-06-14T02:16:20;4.35;;;3.95;;
10769;SDS011;5437;50.852;4.438;2023-06-14T02:18:50;4.80;;;4.13;;
10769;SDS011;5437;50.852;4.438;2023-06-14T02:21:16;4.13;;;3.72;;
10769;SDS011;5437;50.852;4.438;2023-06-14T02:23:43;4.47;;;4.07;;
10769;SDS011;5437;50.852;4.438;2023-06-14T02:26:10;4.18;;;3.78;;
10769;SDS011;5437;50.852;4.438;2023-06-14T02:28:36;4.63;;;4.20;;
10769;SDS011;5437;50.852;4.438;2023-06-14T02:31:02;5.63;;;4.50;;
10769;SDS011;5437;50.852;4.438;2023-06-14T02:33:31;4.55;;;4.15;;
10769;SDS011;5437;50.852;4.438;2023-06-14T02:35:57;4.85;;;4.30;;
10769;SDS011;5437;50.852;4.438;2023-06-14T02:38:23;4.85;;;4.03;;
10769;SDS011;5437;50.852;4.438;2023-06-14T02:40:49;5.47;;;4.40;;
10769;SDS011;5437;50.852;4.438;2023-06-14T02:43:15;4.97;;;4.28;;
10769;SDS011;5437;50.852;4.438;2023-06-14T02:45:45;5.07;;;4.60;;
10769;SDS011;5437;50.852;4.438;2023-06-14T02:48:21;5.05;;;4.25;;
10769;SDS011;5437;50.852;4.438;2023-06-14T02:50:47;5.53;;;4.25;;
10769;SDS011;5437;50.852;4.438;2023-06-14T02:53:13;5.18;;;4.72;;
10769;SDS011;5437;50.852;4.438;2023-06-14T02:55:39;5.40;;;4.25;;
10769;SDS011;5437;50.852;4.438;2023-06-14T02:58:05;4.47;;;3.95;;
10769;SDS011;5437;50.852;4.438;2023-06-14T03:00:34;5.45;;;4.60;;
10769;SDS011;5437;50.852;4.438;2023-06-14T03:03:01;4.90;;;4.40;;
10769;SDS011;5437;50.852;4.438;2023-06-14T03:05:27;5.40;;;4.68;;
10769;SDS011;5437;50.852;4.438;2023-06-14T03:07:53;4.88;;;4.38;;
10769;SDS011;5437;50.852;4.438;2023-06-14T03:10:23;5.13;;;4.47;;
10769;SDS011;5437;50.852;4.438;2023-06-14T03:12:49;5.15;;;4.32;;
10769;SDS011;5437;50.852;4.438;2023-06-14T03:15:16;5.20;;;4.70;;
10769;SDS011;5437;50.852;4.438;2023-06-14T03:17:43;4.68;;;4.25;;
10769;SDS011;5437;50.852;4.438;2023-06-14T03:20:10;5.65;;;4.80;;
10769;SDS011;5437;50.852;4.438;2023-06-14T03:22:39;5.22;;;4.47;;
10769;SDS011;5437;50.852;4.438;2023-06-14T03:25:06;5.50;;;5.00;;
10769;SDS011;5437;50.852;4.438;2023-06-14T03:27:32;5.20;;;4.70;;
10769;SDS011;5437;50.852;4.438;2023-06-14T03:29:58;5.63;;;4.43;;
10769;SDS011;5437;50.852;4.438;2023-06-14T03:32:28;5.85;;;5.18;;
10769;SDS011;5437;50.852;4.438;2023-06-14T03:34:58;5.35;;;4.85;;
10769;SDS011;5437;50.852;4.438;2023-06-14T03:37:24;7.35;;;5.15;;
10769;SDS011;5437;50.852;4.438;2023-06-14T03:39:50;6.03;;;4.90;;
10769;SDS011;5437;50.852;4.438;2023-06-14T03:42:16;4.97;;;4.55;;
10769;SDS011;5437;50.852;4.438;2023-06-14T03:44:45;6.00;;;4.70;;
10769;SDS011;5437;50.852;4.438;2023-06-14T03:47:13;5.75;;;4.90;;
10769;SDS011;5437;50.852;4.438;2023-06-14T03:49:40;8.82;;;5.43;;
10769;SDS011;5437;50.852;4.438;2023-06-14T03:52:06;6.50;;;5.40;;
10769;SDS011;5437;50.852;4.438;2023-06-14T03:54:35;5.47;;;4.93;;
10769;SDS011;5437;50.852;4.438;2023-06-14T03:57:01;5.30;;;4.65;;
10769;SDS011;5437;50.852;4.438;2023-06-14T03:59:27;7.82;;;5.15;;
10769;SDS011;5437;50.852;4.438;2023-06-14T04:01:54;5.45;;;4.55;;
10769;SDS011;5437;50.852;4.438;2023-06-14T04:04:20;5.32;;;4.82;;
10769;SDS011;5437;50.852;4.438;2023-06-14T04:06:47;5.60;;;4.40;;
10769;SDS011;5437;50.852;4.438;2023-06-14T04:09:13;5.28;;;4.78;;
10769;SDS011;5437;50.852;4.438;2023-06-14T04:11:39;6.20;;;5.07;;
10769;SDS011;5437;50.852;4.438;2023-06-14T04:14:09;5.10;;;4.65;;
10769;SDS011;5437;50.852;4.438;2023-06-14T04:16:35;5.13;;;4.72;;
10769;SDS011;5437;50.852;4.438;2023-06-14T04:19:01;5.72;;;4.68;;
10769;SDS011;5437;50.852;4.438;2023-06-14T04:21:27;6.22;;;5.07;;
10769;SDS011;5437;50.852;4.438;2023-06-14T04:23:54;4.80;;;4.32;;
10769;SDS011;5437;50.852;4.438;2023-06-14T04:26:21;7.05;;;4.97;;
10769;SDS011;5437;50.852;4.438;2023-06-14T04:28:48;7.10;;;4.95;;
10769;SDS011;5437;50.852;4.438;2023-06-14T04:31:15;4.95;;;4.45;;
10769;SDS011;5437;50.852;4.438;2023-06-14T04:33:44;6.53;;;4.72;;
10769;SDS011;5437;50.852;4.438;2023-06-14T04:36:11;4.97;;;4.47;;
10769;SDS011;5437;50.852;4.438;2023-06-14T04:38:38;6.82;;;4.82;;
10769;SDS011;5437;50.852;4.438;2023-06-14T04:41:05;5.25;;;4.70;;
10769;SDS011;5437;50.852;4.438;2023-06-14T04:43:31;6.13;;;5.43;;
10769;SDS011;5437;50.852;4.438;2023-06-14T04:46:02;6.35;;;5.05;;
10769;SDS011;5437;50.852;4.438;2023-06-14T04:48:30;5.38;;;4.53;;
10769;SDS011;5437;50.852;4.438;2023-06-14T04:50:57;5.20;;;4.53;;
10769;SDS011;5437;50.852;4.438;2023-06-14T04:53:23;5.55;;;4.70;;
10769;SDS011;5437;50.852;4.438;2023-06-14T04:55:50;6.50;;;5.10;;
10769;SDS011;5437;50.852;4.438;2023-06-14T04:58:16;5.95;;;5.25;;
10769;SDS011;5437;50.852;4.438;2023-06-14T05:00:42;6.00;;;4.95;;
10769;SDS011;5437;50.852;4.438;2023-06-14T05:03:08;6.45;;;5.57;;
10769;SDS011;5437;50.852;4.438;2023-06-14T05:05:41;6.18;;;4.85;;
10769;SDS011;5437;50.852;4.438;2023-06-14T05:08:10;5.70;;;5.18;;
10769;SDS011;5437;50.852;4.438;2023-06-14T05:10:36;5.22;;;4.47;;
10769;SDS011;5437;50.852;4.438;2023-06-14T05:13:03;7.32;;;5.65;;
10769;SDS011;5437;50.852;4.438;2023-06-14T05:15:31;6.72;;;5.18;;
10769;SDS011;5437;50.852;4.438;2023-06-14T05:18:04;5.63;;;4.85;;
10769;SDS011;5437;50.852;4.438;2023-06-14T05:20:30;6.25;;;5.13;;
10769;SDS011;5437;50.852;4.438;2023-06-14T05:22:56;5.18;;;4.68;;
10769;SDS011;5437;50.852;4.438;2023-06-14T05:25:32;5.85;;;5.18;;
10769;SDS011;5437;50.852;4.438;2023-06-14T05:28:01;6.43;;;5.00;;
10769;SDS011;5437;50.852;4.438;2023-06-14T05:30:28;5.72;;;4.95;;
10769;SDS011;5437;50.852;4.438;2023-06-14T05:32:55;5.35;;;4.75;;
10769;SDS011;5437;50.852;4.438;2023-06-14T05:35:21;6.85;;;5.28;;
10769;SDS011;5437;50.852;4.438;2023-06-14T05:37:48;5.72;;;4.93;;
10769;SDS011;5437;50.852;4.438;2023-06-14T05:40:14;5.82;;;4.70;;
10769;SDS011;5437;50.852;4.438;2023-06-14T05:42:42;5.97;;;5.03;;
10769;SDS011;5437;50.852;4.438;2023-06-14T05:45:08;5.45;;;4.80;;
10769;SDS011;5437;50.852;4.438;2023-06-14T05:47:34;5.75;;;5.15;;
10769;SDS011;5437;50.852;4.438;2023-06-14T05:50:00;5.65;;;4.88;;
10769;SDS011;5437;50.852;4.438;2023-06-14T05:52:26;5.13;;;4.63;;
10769;SDS011;5437;50.852;4.438;2023-06-14T05:54:53;6.53;;;5.20;;
10769;SDS011;5437;50.852;4.438;2023-06-14T05:57:19;4.72;;;4.30;;
10769;SDS011;5437;50.852;4.438;2023-06-14T05:59:45;5.65;;;4.90;;
10769;SDS011;5437;50.852;4.438;2023-06-14T06:02:11;6.55;;;5.45;;
10769;SDS011;5437;50.852;4.438;2023-06-14T06:04:37;6.43;;;5.30;;
10769;SDS011;5437;50.852;4.438;2023-06-14T06:07:03;5.68;;;5.05;;
10769;SDS011;5437;50.852;4.438;2023-06-14T06:09:30;5.03;;;4.55;;
10769;SDS011;5437;50.852;4.438;2023-06-14T06:11:56;5.32;;;4.82;;
10769;SDS011;5437;50.852;4.438;2023-06-14T06:14:22;6.00;;;5.15;;
10769;SDS011;5437;50.852;4.438;2023-06-14T06:16:48;6.47;;;4.90;;
10769;SDS011;5437;50.852;4.438;2023-06-14T06:19:14;6.03;;;5.10;;
10769;SDS011;5437;50.852;4.438;2023-06-14T06:21:44;7.03;;;5.28;;
10769;SDS011;5437;50.852;4.438;2023-06-14T06:24:13;5.20;;;4.70;;
10769;SDS011;5437;50.852;4.438;2023-06-14T06:26:39;6.18;;;4.72;;
10769;SDS011;5437;50.852;4.438;2023-06-14T06:29:08;6.68;;;5.07;;
10769;SDS011;5437;50.852;4.438;2023-06-14T06:31:35;6.43;;;4.70;;
10769;SDS011;5437;50.852;4.438;2023-06-14T06:34:01;6.03;;;4.47;;
10769;SDS011;5437;50.852;4.438;2023-06-14T06:36:27;7.03;;;4.97;;
10769;SDS011;5437;50.852;4.438;2023-06-14T06:38:54;7.50;;;4.78;;
10769;SDS011;5437;50.852;4.438;2023-06-14T06:41:20;6.25;;;4.80;;
10769;SDS011;5437;50.852;4.438;2023-06-14T06:43:46;7.53;;;5.07;;
10769;SDS011;5437;50.852;4.438;2023-06-14T06:46:12;4.78;;;4.40;;
10769;SDS011;5437;50.852;4.438;2023-06-14T06:48:38;7.28;;;5.05;;
10769;SDS011;5437;50.852;4.438;2023-06-14T06:51:04;5.00;;;4.38;;
10769;SDS011;5437;50.852;4.438;2023-06-14T06:53:30;4.68;;;4.28;;
10769;SDS011;5437;50.852;4.438;2023-06-14T06:55:56;5.13;;;4.55;;
10769;SDS011;5437;50.852;4.438;2023-06-14T06:58:23;4.90;;;4.40;;
10769;SDS011;5437;50.852;4.438;2023-06-14T07:00:49;4.72;;;4.28;;
10769;SDS011;5437;50.852;4.438;2023-06-14T07:03:15;6.40;;;4.40;;
10769;SDS011;5437;50.852;4.438;2023-06-14T07:05:41;5.20;;;4.70;;
10769;SDS011;5437;50.852;4.438;2023-06-14T07:08:07;4.95;;;4.20;;
10769;SDS011;5437;50.852;4.438;2023-06-14T07:10:33;5.75;;;4.55;;
10769;SDS011;5437;50.852;4.438;2023-06-14T07:12:59;4.70;;;4.30;;
10769;SDS011;5437;50.852;4.438;2023-06-14T07:15:25;4.82;;;4.32;;
10769;SDS011;5437;50.852;4.438;2023-06-14T07:17:51;4.80;;;4.30;;
10769;SDS011;5437;50.852;4.438;2023-06-14T07:20:18;4.30;;;3.88;;
10769;SDS011;5437;50.852;4.438;2023-06-14T07:22:46;4.93;;;4.28;;
10769;SDS011;5437;50.852;4.438;2023-06-14T07:25:12;4.85;;;4.32;;
10769;SDS011;5437;50.852;4.438;2023-06-14T07:27:39;4.60;;;4.18;;
10769;SDS011;5437;50.852;4.438;2023-06-14T07:30:05;6.80;;;4.15;;
10769;SDS011;5437;50.852;4.438;2023-06-14T07:32:32;5.85;;;4.53;;
10769;SDS011;5437;50.852;4.438;2023-06-14T07:34:58;5.28;;;4.00;;
10769;SDS011;5437;50.852;4.438;2023-06-14T07:37:24;4.82;;;4.20;;
10769;SDS011;5437;50.852;4.438;2023-06-14T07:39:50;4.40;;;4.00;;
10769;SDS011;5437;50.852;4.438;2023-06-14T07:42:16;8.60;;;4.68;;
10769;SDS011;5437;50.852;4.438;2023-06-14T07:44:42;5.00;;;4.50;;
10769;SDS011;5437;50.852;4.438;2023-06-14T07:47:08;4.50;;;4.10;;
10769;SDS011;5437;50.852;4.438;2023-06-14T07:49:35;6.65;;;4.15;;
10769;SDS011;5437;50.852;4.438;2023-06-14T07:52:01;5.25;;;4.47;;
10769;SDS011;5437;50.852;4.438;2023-06-14T07:54:27;5.28;;;4.13;;
10769;SDS011;5437;50.852;4.438;2023-06-14T07:56:53;4.65;;;4.25;;
10769;SDS011;5437;50.852;4.438;2023-06-14T07:59:21;4.13;;;3.72;;
10769;SDS011;5437;50.852;4.438;2023-06-14T08:01:47;4.30;;;3.90;;
10769;SDS011;5437;50.852;4.438;2023-06-14T08:04:16;4.97;;;4.07;;
10769;SDS011;5437;50.852;4.438;2023-06-14T08:06:42;5.35;;;4.13;;
10769;SDS011;5437;50.852;4.438;2023-06-14T08:09:10;4.18;;;3.78;;
10769;SDS011;5437;50.852;4.438;2023-06-14T08:11:36;4.57;;;4.18;;
10769;SDS011;5437;50.852;4.438;2023-06-14T08:14:02;4.75;;;4.35;;
10769;SDS011;5437;50.852;4.438;2023-06-14T08:16:28;4.57;;;4.13;;
10769;SDS011;5437;50.852;4.438;2023-06-14T08:18:55;5.88;;;4.70;;
10769;SDS011;5437;50.852;4.438;2023-06-14T08:21:21;6.32;;;4.60;;
10769;SDS011;5437;50.852;4.438;2023-06-14T08:23:47;4.50;;;4.10;;
10769;SDS011;5437;50.852;4.438;2023-06-14T08:26:13;4.43;;;4.03;;
10769;SDS011;5437;50.852;4.438;2023-06-14T08:28:39;4.72;;;3.83;;
10769;SDS011;5437;50.852;4.438;2023-06-14T08:31:05;4.60;;;4.18;;
10769;SDS011;5437;50.852;4.438;2023-06-14T08:33:34;5.28;;;4.18;;
10769;SDS011;5437;50.852;4.438;2023-06-14T08:36:00;4.35;;;3.95;;
10769;SDS011;5437;50.852;4.438;2023-06-14T08:38:26;4.13;;;3.80;;
10769;SDS011;5437;50.852;4.438;2023-06-14T08:40:52;4.88;;;4.38;;
10769;SDS011;5437;50.852;4.438;2023-06-14T08:43:23;4.40;;;4.00;;
10769;SDS011;5437;50.852;4.438;2023-06-14T08:45:49;5.43;;;4.13;;
10769;SDS011;5437;50.852;4.438;2023-06-14T08:48:19;5.57;;;4.15;;
10769;SDS011;5437;50.852;4.438;2023-06-14T08:50:46;5.93;;;4.10;;
10769;SDS011;5437;50.852;4.438;2023-06-14T08:53:13;4.60;;;3.65;;
10769;SDS011;5437;50.852;4.438;2023-06-14T08:55:44;4.47;;;3.72;;
10769;SDS011;5437;50.852;4.438;2023-06-14T08:58:10;3.97;;;3.58;;
10769;SDS011;5437;50.852;4.438;2023-06-14T09:00:39;4.47;;;4.05;;
10769;SDS011;5437;50.852;4.438;2023-06-14T09:03:07;4.50;;;4.10;;
10769;SDS011;5437;50.852;4.438;2023-06-14T09:05:38;4.28;;;3.70;;
10769;SDS011;5437;50.852;4.438;2023-06-14T09:08:04;6.65;;;3.88;;
10769;SDS011;5437;50.852;4.438;2023-06-14T09:10:31;4.38;;;3.97;;
10769;SDS011;5437;50.852;4.438;2023-06-14T09:13:02;4.93;;;3.92;;
10769;SDS011;5437;50.852;4.438;2023-06-14T09:15:28;4.15;;;3.78;;
10769;SDS011;5437;50.852;4.438;2023-06-14T09:17:55;4.60;;;4.00;;
10769;SDS011;5437;50.852;4.438;2023-06-14T09:20:23;4.47;;;4.07;;
10769;SDS011;5437;50.852;4.438;2023-06-14T09:22:50;3.72;;;3.42;;
10769;SDS011;5437;50.852;4.438;2023-06-14T09:25:16;4.40;;;4.00;;
10769;SDS011;5437;50.852;4.438;2023-06-14T09:27:43;4.03;;;3.60;;
10769;SDS011;5437;50.852;4.438;2023-06-14T09:30:09;3.60;;;3.30;;
10769;SDS011;5437;50.852;4.438;2023-06-14T09:32:38;4.10;;;3.70;;
10769;SDS011;5437;50.852;4.438;2023-06-14T09:35:08;4.28;;;3.88;;
10769;SDS011;5437;50.852;4.438;2023-06-14T09:37:35;3.70;;;3.40;;
10769;SDS011;5437;50.852;4.438;2023-06-14T09:40:03;5.57;;;4.20;;
10769;SDS011;5437;50.852;4.438;2023-06-14T09:42:29;3.70;;;3.40;;
10769;SDS011;5437;50.852;4.438;2023-06-14T09:44:56;4.07;;;3.65;;
10769;SDS011;5437;50.852;4.438;2023-06-14T09:47:22;3.95;;;3.55;;
10769;SDS011;5437;50.852;4.438;2023-06-14T09:49:50;4.53;;;3.70;;
10769;SDS011;5437;50.852;4.438;2023-06-14T09:52:17;4.15;;;3.75;;
10769;SDS011;5437;50.852;4.438;2023-06-14T09:54:44;4.20;;;3.78;;
10769;SDS011;5437;50.852;4.438;2023-06-14T09:57:15;4.30;;;3.80;;
10769;SDS011;5437;50.852;4.438;2023-06-14T09:59:44;3.83;;;3.53;;
10769;SDS011;5437;50.852;4.438;2023-06-14T10:04:46;3.80;;;3.47;;
10769;SDS011;5437;50.852;4.438;2023-06-14T10:07:18;4.78;;;3.92;;
10769;SDS011;5437;50.852;4.438;2023-06-14T10:09:45;3.80;;;3.50;;
10769;SDS011;5437;50.852;4.438;2023-06-14T10:12:15;4.25;;;3.85;;
10769;SDS011;5437;50.852;4.438;2023-06-14T10:14:46;4.22;;;3.83;;
10769;SDS011;5437;50.852;4.438;2023-06-14T10:17:12;4.07;;;3.63;;
10769;SDS011;5437;50.852;4.438;2023-06-14T10:19:56;4.45;;;3.65;;
10769;SDS011;5437;50.852;4.438;2023-06-14T10:22:27;4.32;;;3.85;;
10769;SDS011;5437;50.852;4.438;2023-06-14T10:24:55;3.92;;;3.53;;
10769;SDS011;5437;50.852;4.438;2023-06-14T10:27:24;3.75;;;3.42;;
10769;SDS011;5437;50.852;4.438;2023-06-14T10:32:20;4.32;;;3.55;;
10769;SDS011;5437;50.852;4.438;2023-06-14T10:34:51;4.45;;;3.85;;
10769;SDS011;5437;50.852;4.438;2023-06-14T10:37:19;4.00;;;3.63;;
10769;SDS011;5437;50.852;4.438;2023-06-14T10:39:46;3.78;;;3.47;;
10769;SDS011;5437;50.852;4.438;2023-06-14T10:42:12;3.58;;;3.28;;
10769;SDS011;5437;50.852;4.438;2023-06-14T10:44:39;3.35;;;3.05;;
10769;SDS011;5437;50.852;4.438;2023-06-14T10:47:47;3.22;;;2.90;;
10769;SDS011;5437;50.852;4.438;2023-06-14T10:52:28;3.50;;;3.20;;
10769;SDS011;5437;50.852;4.438;2023-06-14T10:57:26;4.20;;;3.30;;
10769;SDS011;5437;50.852;4.438;2023-06-14T10:59:53;3.72;;;3.13;;
10769;SDS011;5437;50.852;4.438;2023-06-14T11:05:10;3.47;;;3.17;;
10769;SDS011;5437;50.852;4.438;2023-06-14T11:07:47;3.55;;;2.90;;
10769;SDS011;5437;50.852;4.438;2023-06-14T11:10:22;3.55;;;3.25;;
10769;SDS011;5437;50.852;4.438;2023-06-14T11:12:52;3.95;;;2.70;;
10769;SDS011;5437;50.852;4.438;2023-06-14T11:15:27;3.67;;;2.80;;
10769;SDS011;5437;50.852;4.438;2023-06-14T11:17:56;3.63;;;3.33;;
10769;SDS011;5437;50.852;4.438;2023-06-14T11:20:26;3.15;;;2.85;;
10769;SDS011;5437;50.852;4.438;2023-06-14T11:22:52;4.88;;;3.03;;
10769;SDS011;5437;50.852;4.438;2023-06-14T11:25:19;3.10;;;2.78;;
10769;SDS011;5437;50.852;4.438;2023-06-14T11:27:48;2.90;;;2.70;;
10769;SDS011;5437;50.852;4.438;2023-06-14T11:30:15;3.00;;;2.70;;
10769;SDS011;5437;50.852;4.438;2023-06-14T11:32:41;3.38;;;3.08;;
10769;SDS011;5437;50.852;4.438;2023-06-14T11:35:08;3.25;;;2.72;;
10769;SDS011;5437;50.852;4.438;2023-06-14T11:37:35;3.75;;;3.00;;
10769;SDS011;5437;50.852;4.438;2023-06-14T11:40:06;3.50;;;2.70;;
10769;SDS011;5437;50.852;4.438;2023-06-14T11:42:34;3.53;;;2.85;;
10769;SDS011;5437;50.852;4.438;2023-06-14T11:45:00;3.00;;;2.80;;
10769;SDS011;5437;50.852;4.438;2023-06-14T11:47:31;3.13;;;2.83;;
10769;SDS011;5437;50.852;4.438;2023-06-14T11:50:04;3.05;;;2.78;;
10769;SDS011;5437;50.852;4.438;2023-06-14T11:52:31;3.22;;;2.92;;
10769;SDS011;5437;50.852;4.438;2023-06-14T11:54:57;3.33;;;2.85;;
10769;SDS011;5437;50.852;4.438;2023-06-14T11:57:24;3.05;;;2.85;;
10769;SDS011;5437;50.852;4.438;2023-06-14T11:59:50;3.05;;;2.85;;
10769;SDS011;5437;50.852;4.438;2023-06-14T12:02:16;4.00;;;2.70;;
10769;SDS011;5437;50.852;4.438;2023-06-14T12:04:43;4.57;;;3.00;;
10769;SDS011;5437;50.852;4.438;2023-06-14T12:07:17;3.63;;;2.90;;
10769;SDS011;5437;50.852;4.438;2023-06-14T12:12:23;3.40;;;2.58;;
10769;SDS011;5437;50.852;4.438;2023-06-14T12:14:52;2.80;;;2.60;;
10769;SDS011;5437;50.852;4.438;2023-06-14T12:17:18;3.08;;;2.78;;
10769;SDS011;5437;50.852;4.438;2023-06-14T12:19:45;2.50;;;2.30;;
10769;SDS011;5437;50.852;4.438;2023-06-14T12:22:12;2.70;;;2.47;;
10769;SDS011;5437;50.852;4.438;2023-06-14T12:24:38;2.90;;;2.67;;
10769;SDS011;5437;50.852;4.438;2023-06-14T12:27:08;3.00;;;2.80;;
10769;SDS011;5437;50.852;4.438;2023-06-14T12:29:44;2.70;;;2.50;;
10769;SDS011;5437;50.852;4.438;2023-06-14T12:32:11;3.10;;;2.80;;
10769;SDS011;5437;50.852;4.438;2023-06-14T12:34:40;2.35;;;2.15;;
10769;SDS011;5437;50.852;4.438;2023-06-14T12:37:06;3.88;;;2.70;;
10769;SDS011;5437;50.852;4.438;2023-06-14T12:39:39;2.90;;;2.70;;
10769;SDS011;5437;50.852;4.438;2023-06-14T12:42:05;2.72;;;2.53;;
10769;SDS011;5437;50.852;4.438;2023-06-14T12:44:31;3.08;;;2.50;;
10769;SDS011;5437;50.852;4.438;2023-06-14T12:46:58;2.78;;;2.45;;
10769;SDS011;5437;50.852;4.438;2023-06-14T12:49:25;2.75;;;2.55;;
10769;SDS011;5437;50.852;4.438;2023-06-14T12:51:51;2.72;;;2.53;;
10769;SDS011;5437;50.852;4.438;2023-06-14T12:54:17;2.60;;;2.40;;
10769;SDS011;5437;50.852;4.438;2023-06-14T12:56:43;2.65;;;2.45;;
10769;SDS011;5437;50.852;4.438;2023-06-14T12:59:09;2.35;;;2.17;;
10769;SDS011;5437;50.852;4.438;2023-06-14T13:01:37;2.53;;;2.30;;
10769;SDS011;5437;50.852;4.438;2023-06-14T13:04:04;4.47;;;3.05;;
10769;SDS011;5437;50.852;4.438;2023-06-14T13:06:33;3.55;;;2.30;;
10769;SDS011;5437;50.852;4.438;2023-06-14T13:08:59;2.40;;;2.20;;
10769;SDS011;5437;50.852;4.438;2023-06-14T13:11:26;2.78;;;2.55;;
10769;SDS011;5437;50.852;4.438;2023-06-14T13:13:52;2.72;;;2.45;;
10769;SDS011;5437;50.852;4.438;2023-06-14T13:16:19;2.60;;;2.30;;
10769;SDS011;5437;50.852;4.438;2023-06-14T13:18:45;2.45;;;2.25;;
10769;SDS011;5437;50.852;4.438;2023-06-14T13:21:11;2.92;;;2.60;;
10769;SDS011;5437;50.852;4.438;2023-06-14T13:23:37;3.65;;;2.40;;
10769;SDS011;5437;50.852;4.438;2023-06-14T13:26:06;2.42;;;2.22;;
10769;SDS011;5437;50.852;4.438;2023-06-14T13:28:33;2.45;;;2.25;;
10769;SDS011;5437;50.852;4.438;2023-06-14T13:31:00;2.67;;;2.30;;
10769;SDS011;5437;50.852;4.438;2023-06-14T13:33:27;3.03;;;2.40;;
10769;SDS011;5437;50.852;4.438;2023-06-14T13:35:53;2.22;;;2.13;;
10769;SDS011;5437;50.852;4.438;2023-06-14T13:38:19;2.15;;;1.92;;
10769;SDS011;5437;50.852;4.438;2023-06-14T13:40:45;2.03;;;1.88;;
10769;SDS011;5437;50.852;4.438;2023-06-14T13:43:11;1.80;;;1.70;;
10769;SDS011;5437;50.852;4.438;2023-06-14T13:45:37;1.92;;;1.80;;
10769;SDS011;5437;50.852;4.438;2023-06-14T13:48:03;1.92;;;1.77;;
10769;SDS011;5437;50.852;4.438;2023-06-14T13:50:30;2.05;;;1.85;;
10769;SDS011;5437;50.852;4.438;2023-06-14T13:53:05;2.00;;;1.80;;
10769;SDS011;5437;50.852;4.438;2023-06-14T13:55:35;1.85;;;1.65;;
10769;SDS011;5437;50.852;4.438;2023-06-14T13:58:01;1.63;;;1.52;;
10769;SDS011;5437;50.852;4.438;2023-06-14T14:00:30;1.75;;;1.65;;
10769;SDS011;5437;50.852;4.438;2023-06-14T14:02:59;1.63;;;1.52;;
10769;SDS011;5437;50.852;4.438;2023-06-14T14:05:46;2.00;;;1.80;;
10769;SDS011;5437;50.852;4.438;2023-06-14T14:08:11;1.95;;;1.42;;
10769;SDS011;5437;50.852;4.438;2023-06-14T14:10:37;1.58;;;1.48;;
10769;SDS011;5437;50.852;4.438;2023-06-14T14:13:11;1.60;;;1.50;;
10769;SDS011;5437;50.852;4.438;2023-06-14T14:15:37;3.67;;;1.33;;
10769;SDS011;5437;50.852;4.438;2023-06-14T14:18:04;1.50;;;1.40;;
10769;SDS011;5437;50.852;4.438;2023-06-14T14:20:33;1.63;;;1.42;;
10769;SDS011;5437;50.852;4.438;2023-06-14T14:23:08;2.53;;;1.27;;
10769;SDS011;5437;50.852;4.438;2023-06-14T14:25:34;1.33;;;1.23;;
10769;SDS011;5437;50.852;4.438;2023-06-14T14:28:00;1.40;;;1.30;;
10769;SDS011;5437;50.852;4.438;2023-06-14T14:30:30;2.80;;;1.38;;
10769;SDS011;5437;50.852;4.438;2023-06-14T14:32:56;1.60;;;1.27;;
10769;SDS011;5437;50.852;4.438;2023-06-14T14:35:22;1.40;;;1.30;;
10769;SDS011;5437;50.852;4.438;2023-06-14T14:37:51;1.02;;;0.98;;
10769;SDS011;5437;50.852;4.438;2023-06-14T14:40:26;1.30;;;1.20;;
10769;SDS011;5437;50.852;4.438;2023-06-14T14:42:52;1.35;;;1.20;;
10769;SDS011;5437;50.852;4.438;2023-06-14T14:45:18;1.77;;;1.33;;
10769;SDS011;5437;50.852;4.438;2023-06-14T14:47:44;1.33;;;1.20;;
10769;SDS011;5437;50.852;4.438;2023-06-14T14:50:10;1.10;;;1.10;;
10769;SDS011;5437;50.852;4.438;2023-06-14T14:52:39;1.30;;;1.20;;
10769;SDS011;5437;50.852;4.438;2023-06-14T14:55:05;1.30;;;1.20;;
10769;SDS011;5437;50.852;4.438;2023-06-14T14:57:31;1.10;;;1.08;;
10769;SDS011;5437;50.852;4.438;2023-06-14T14:59:57;1.10;;;1.05;;
10769;SDS011;5437;50.852;4.438;2023-06-14T15:02:27;1.48;;;1.38;;
10769;SDS011;5437;50.852;4.438;2023-06-14T15:04:53;2.22;;;1.10;;
10769;SDS011;5437;50.852;4.438;2023-06-14T15:07:19;1.45;;;1.20;;
10769;SDS011;5437;50.852;4.438;2023-06-14T15:09:46;1.30;;;1.20;;
10769;SDS011;5437;50.852;4.438;2023-06-14T15:12:15;1.30;;;1.20;;
10769;SDS011;5437;50.852;4.438;2023-06-14T15:14:41;1.38;;;1.27;;
10769;SDS011;5437;50.852;4.438;2023-06-14T15:17:07;1.27;;;1.17;;
10769;SDS011;5437;50.852;4.438;2023-06-14T15:19:33;1.35;;;1.25;;
10769;SDS011;5437;50.852;4.438;2023-06-14T15:22:01;1.63;;;1.30;;
10769;SDS011;5437;50.852;4.438;2023-06-14T15:24:27;1.42;;;1.33;;
10769;SDS011;5437;50.852;4.438;2023-06-14T15:26:57;3.63;;;1.55;;
10769;SDS011;5437;50.852;4.438;2023-06-14T15:29:23;1.63;;;1.42;;